Relevés horaires Bierset (Belgique)


Relevés horaires à Bierset - Samedi 20 Avr. 2019
Heure UTC1 Température [°C] Vent [km/h] Hum. [%] Pres.4 [hPa] Visi. [Km] Nébu. [octa] Préc.5 [mm] Cond.
2m. Res. Ros. Dir.2 Vit. Moy. Raf.3
23:00 15.4 15 3.9 ENE 11.1 11.1 14.8 46 1025.1(-0.4/3h) 30 0/8 -- --
22:00 16.4 16.4 4.1 ENE 7.4 9.3 14.8 44 1025.4(0.2/3h) 30 0/8 -- --
21:00 16.6 16.6 3.8 NE 7.4 9.3 18.5 42 1025.5(-0.2/3h) 30 0/8 -- --
20:00 17.7 17.7 3.3 NE 7.4 7.4 9.3 38 1025.3(-0.1/3h) 30 0/8 -- --
19:00 18.2 18.2 3.4 NE 5.6 7.4 11.1 37 1025(-0.8/3h) 30 0/8 -- --
18:00 19.8 19.8 4.9 NNE 7.4 13.0 20.4 38 1025(-1.1/3h) 30 0/8 0/12h
--
17:00 21.7 21.7 4.7 NE 9.3 11.1 16.7 33 1025.2(-1.3/3h) 30 0/8 -- --
16:00 22.4 22.4 2.7 NE 11.1 13.0 18.5 27 1025.5(-1.4/3h) 30 0/8 -- --
15:00 22.8 22.8 3.8 NNE 11.1 13.0 20.4 29 1025.9(-1.4/3h) 30 0/8 -- --
14:00 22.7 22.7 3.7 NE 13.0 13.0 20.4 29 1026.4(-1.4/3h) 30 0/8 -- --
13:00 22.9 22.9 5.6 NE 13.0 13.0 20.4 33 1026.9(-1.1/3h) 30 0/8 -- --
12:00 22.6 22.6 7.1 NNE 11.1 13.0 16.7 37 1027.3(-0.9/3h) 30 0/8 0/6h
--
11:00 21.2 21.2 6.8 NE 7.4 9.3 13.0 39 1027.9(-0.6/3h) 30 0/8 -- --
10:00 19.8 19.8 8.0 N 5.6 5.6 9.3 46 1028.3(0.1/3h) 30 0/8 -- --
09:00 18.2 18.2 6.2 N 3.7 5.6 11.1 45 1028.6(0.4/3h) 30 0/8 -- --
08:00 16.2 16.2 5.9 NNE 3.7 3.7 5.6 50 1028.9(0.9/3h) 30 0/8 -- --
07:00 15.1 15.1 5.5 NNO 0.0 3.7 11.1 53 1028.8(0.9/3h) 30 0/8 -- --
06:00 12.7 12.7 3.0 NNO 1.9 9.3 20.4 52 1028.6(0.3/3h) 30 0/8 0/12h
--
05:00 10.6 10.3 3.3 SE 5.6 7.4 18.5 61 1028.4(-0.1/3h) 30 0/8 -- --
04:00 11.5 10.9 1.8 SE 7.4 7.4 18.5 51 1028.2(0.0/3h) 30 0/8 -- --
03:00 12.2 12.1 2.5 SE 5.6 5.6 16.7 51 1028.4(0.0/3h) 30 0/8 -- --
02:00 12.5 12.4 3.2 SE 5.6 5.6 13.0 53 1028.3(-0.2/3h) 30 0/8 -- --
01:00 13.0 13.0 3.3 ESE 3.7 5.6 16.7 52 1028.1(0.2/3h) 30 0/8 -- --
00:00 15.1 15.1 1.9 ESE 3.7 7.4 11.1 41 1028.2(0.3/3h) 30 0/8 0/6h
0/24h
--

1 Coordinated Universal Time. Actuellement il est 15:00 locale et 13:00 UTC.

2 Le vent souffle depuis la direction indiquée vers la direction oposée.

3 Les rafales max. sont disponible 40 min après l'heure du relevé.

4 Pour les stations d'altitude (plus de 600m) le géopotentiel du niveau le plus proche de la pression obligatoire est indiqué.

5 Les stations disposant d'un diffuseur peuvent indiquer "trace". Cela signifie que des précipitations ont touchés le sol mais que la quantité est inférieure à 0.1 mm.

Récapitulatif de la journée
Température [°C] Vent [km/h] Ensoleillement4 [h] Precipitations totale5 [mm] Pression [Hpa]
Min1 Max.2 Moy.3 Max. Min Max.
10.3 23.1 8.7 20.4 0 h 0 min 0 1025.0 1028.9

1 Température minimale relevée entre 18:00 UTC la veille et 18:00 UTC le jour donné.

2 Température maximale relevée entre 06:00 UTC le jour donné et 06:00 UTC le lendemain.

3 Vent moyen de la journée basé sur les relevés horaires.

4 Ensoleillement en heures relevé entre 06:00 UTC la veille et 06:00 UTC le jour donné.

5 Précipitations totales tombées entre 06:00 UTC la jour donné et 06:00 UTC le lendemain.

Graphiques horaires